Time;durP1;ratioP1;P1;durP2;ratioP2;P2;SDS_P1;SDS_P2;PMS_P1;PMS_P2;Temp;Humidity;BMP_temperature;BMP_pressure;BME280_temperature;BME280_humidity;BME280_pressure;Samples;Min_cycle;Max_cycle;Signal;HPM_P1;HPM_P2
2022/03/09 00:02:26;;;;;;;21.33;9.07;;;;;;;;;;5081754;28;20309;-78
2022/03/09 00:04:53;;;;;;;17.10;8.87;;;;;;;;;;5084686;28;20309;-78
2022/03/09 00:07:20;;;;;;;18.07;8.17;;;;;;;;;;5086746;28;20250;-78
2022/03/09 00:09:47;;;;;;;19.57;8.60;;;;;;;;;;5077180;28;20208;-78
2022/03/09 00:12:14;;;;;;;17.63;7.90;;;;;;;;;;5073306;28;20280;-78
2022/03/09 00:14:42;;;;;;;14.60;7.87;;;;;;;;;;5086621;28;20281;-78
2022/03/09 00:17:09;;;;;;;23.63;9.33;;;;;;;;;;5076781;28;20198;-78
2022/03/09 00:19:37;;;;;;;19.73;8.00;;;;;;;;;;5082472;28;20284;-78
2022/03/09 00:22:05;;;;;;;19.90;8.30;;;;;;;;;;5075592;28;20234;-78
2022/03/09 00:24:32;;;;;;;19.97;8.20;;;;;;;;;;5087123;28;20239;-78
2022/03/09 00:27:00;;;;;;;18.97;8.47;;;;;;;;;;5086435;28;20581;-77
2022/03/09 00:29:27;;;;;;;17.33;7.57;;;;;;;;;;5081764;28;20365;-77
2022/03/09 00:31:54;;;;;;;17.93;7.93;;;;;;;;;;5076159;28;20296;-78
2022/03/09 00:34:21;;;;;;;19.50;7.63;;;;;;;;;;5080477;28;20237;-77
2022/03/09 00:36:50;;;;;;;19.33;8.17;;;;;;;;;;5082542;28;20726;-77
2022/03/09 00:39:17;;;;;;;16.40;8.37;;;;;;;;;;5086372;28;20210;-77
2022/03/09 00:41:44;;;;;;;16.33;8.23;;;;;;;;;;5086469;28;20282;-77
2022/03/09 00:44:12;;;;;;;17.17;8.47;;;;;;;;;;5083306;28;20736;-77
2022/03/09 00:46:39;;;;;;;20.07;8.17;;;;;;;;;;5088394;28;20252;-78
2022/03/09 00:49:06;;;;;;;23.50;8.87;;;;;;;;;;5082191;28;21032;-77
2022/03/09 00:51:33;;;;;;;13.83;8.40;;;;;;;;;;5083801;28;20202;-77
2022/03/09 00:54:02;;;;;;;22.47;8.47;;;;;;;;;;5078315;28;20290;-77
2022/03/09 00:56:29;;;;;;;17.23;8.33;;;;;;;;;;5082682;28;20673;-77
2022/03/09 00:58:57;;;;;;;16.00;9.20;;;;;;;;;;5085067;28;20310;-77
2022/03/09 01:01:24;;;;;;;16.23;8.90;;;;;;;;;;5080926;28;20335;-77
2022/03/09 01:03:51;;;;;;;17.00;9.40;;;;;;;;;;5078374;28;20685;-77
2022/03/09 01:06:18;;;;;;;20.80;9.20;;;;;;;;;;5076569;28;20646;-77
2022/03/09 01:08:46;;;;;;;19.50;8.93;;;;;;;;;;5090707;28;20229;-77
2022/03/09 01:11:14;;;;;;;25.10;9.37;;;;;;;;;;5077604;28;20207;-77
2022/03/09 01:13:41;;;;;;;19.23;9.53;;;;;;;;;;5079026;28;20205;-77
2022/03/09 01:16:09;;;;;;;18.30;9.50;;;;;;;;;;5088247;28;20265;-77
2022/03/09 01:18:36;;;;;;;23.43;10.17;;;;;;;;;;5080313;28;20277;-77
2022/03/09 01:21:03;;;;;;;21.17;10.37;;;;;;;;;;5093090;28;20293;-77
2022/03/09 01:23:30;;;;;;;26.33;10.70;;;;;;;;;;5086185;28;20233;-77
2022/03/09 01:25:57;;;;;;;17.50;9.30;;;;;;;;;;5082924;28;20209;-77
2022/03/09 01:28:26;;;;;;;22.00;9.03;;;;;;;;;;5082583;28;20249;-78
2022/03/09 01:30:53;;;;;;;21.57;9.80;;;;;;;;;;5082454;28;20238;-77
2022/03/09 01:33:20;;;;;;;24.73;10.13;;;;;;;;;;5093759;28;21013;-77
2022/03/09 01:35:47;;;;;;;20.70;9.93;;;;;;;;;;5085738;28;20277;-77
2022/03/09 01:38:15;;;;;;;23.93;9.90;;;;;;;;;;5077214;28;20237;-77
2022/03/09 01:40:42;;;;;;;19.63;9.07;;;;;;;;;;5089324;28;20283;-77
2022/03/09 01:43:09;;;;;;;19.93;9.40;;;;;;;;;;5081896;28;20245;-77
2022/03/09 01:45:38;;;;;;;20.00;8.93;;;;;;;;;;5082031;28;20191;-77
2022/03/09 01:48:05;;;;;;;17.97;8.77;;;;;;;;;;5073973;28;20318;-77
2022/03/09 01:50:32;;;;;;;21.27;9.40;;;;;;;;;;5085486;28;20285;-77
2022/03/09 01:53:00;;;;;;;16.77;8.87;;;;;;;;;;5076181;28;20202;-77
2022/03/09 01:55:28;;;;;;;16.10;8.40;;;;;;;;;;5074716;28;20307;-77
2022/03/09 01:57:55;;;;;;;25.47;9.80;;;;;;;;;;5090797;28;20190;-77
2022/03/09 02:00:22;;;;;;;16.57;8.70;;;;;;;;;;5073183;28;20293;-77
2022/03/09 02:02:51;;;;;;;21.37;8.77;;;;;;;;;;5073902;28;20281;-77
2022/03/09 02:05:18;;;;;;;17.17;8.93;;;;;;;;;;5073768;28;20290;-77
2022/03/09 02:10:30;;;;;;;20.37;9.97;;;;;;;;;;5074887;28;20198;-77
2022/03/09 02:12:57;;;;;;;19.93;9.10;;;;;;;;;;5085059;28;20225;-77
2022/03/09 02:15:25;;;;;;;21.17;8.93;;;;;;;;;;5078313;28;20285;-77
2022/03/09 02:17:53;;;;;;;22.77;9.13;;;;;;;;;;5080753;28;20287;-77
2022/03/09 02:20:21;;;;;;;22.70;9.47;;;;;;;;;;5081006;28;20229;-77
2022/03/09 02:22:49;;;;;;;19.50;8.93;;;;;;;;;;5081081;28;20233;-77
2022/03/09 02:25:17;;;;;;;17.77;8.30;;;;;;;;;;5078943;28;21481;-76
2022/03/09 02:27:45;;;;;;;21.87;8.70;;;;;;;;;;5080640;28;20263;-77
2022/03/09 02:30:13;;;;;;;16.87;7.70;;;;;;;;;;5087140;28;20270;-77
2022/03/09 02:32:41;;;;;;;16.13;7.70;;;;;;;;;;5079722;28;20757;-77
2022/03/09 02:35:08;;;;;;;14.27;7.53;;;;;;;;;;5091598;28;20282;-76
2022/03/09 02:37:36;;;;;;;15.73;7.13;;;;;;;;;;5092946;28;20664;-77
2022/03/09 02:40:04;;;;;;;18.90;8.17;;;;;;;;;;5092594;28;20200;-77
2022/03/09 02:42:32;;;;;;;18.00;8.03;;;;;;;;;;5080618;28;20194;-77
2022/03/09 02:44:59;;;;;;;15.73;8.43;;;;;;;;;;5088826;28;20225;-77
2022/03/09 02:47:26;;;;;;;17.50;9.27;;;;;;;;;;5080272;28;21670;-77
2022/03/09 02:49:53;;;;;;;19.93;10.27;;;;;;;;;;5084629;28;20230;-77
2022/03/09 02:52:20;;;;;;;17.53;8.50;;;;;;;;;;5083762;28;20254;-77
2022/03/09 02:54:48;;;;;;;23.87;9.37;;;;;;;;;;5084006;28;20280;-76
2022/03/09 02:57:16;;;;;;;22.50;9.27;;;;;;;;;;5079998;28;20629;-77
2022/03/09 02:59:43;;;;;;;21.90;9.17;;;;;;;;;;5080461;28;20716;-77
2022/03/09 03:02:11;;;;;;;19.83;8.70;;;;;;;;;;5080529;28;20281;-77
2022/03/09 03:04:38;;;;;;;19.47;9.40;;;;;;;;;;5084407;28;20346;-77
2022/03/09 03:07:05;;;;;;;15.37;8.37;;;;;;;;;;5077034;28;20598;-76
2022/03/09 03:09:33;;;;;;;20.67;8.03;;;;;;;;;;5083044;28;20603;-77
2022/03/09 03:12:00;;;;;;;18.60;8.43;;;;;;;;;;5084153;28;20284;-77
2022/03/09 03:14:28;;;;;;;21.07;9.40;;;;;;;;;;5082243;28;20296;-77
2022/03/09 03:16:55;;;;;;;20.50;9.37;;;;;;;;;;5083598;28;20201;-77
2022/03/09 03:19:23;;;;;;;19.63;9.23;;;;;;;;;;5072212;28;20285;-77
2022/03/09 03:21:50;;;;;;;20.70;9.90;;;;;;;;;;5074477;28;20237;-77
2022/03/09 03:24:17;;;;;;;19.57;8.27;;;;;;;;;;5072027;28;20258;-77
2022/03/09 03:26:44;;;;;;;19.67;8.53;;;;;;;;;;5073759;28;20198;-77
2022/03/09 03:29:11;;;;;;;25.90;8.70;;;;;;;;;;5077595;28;20309;-76
2022/03/09 03:31:40;;;;;;;22.00;9.30;;;;;;;;;;5082027;28;20210;-77
2022/03/09 03:34:07;;;;;;;20.53;9.13;;;;;;;;;;5085508;28;20235;-77
2022/03/09 03:36:34;;;;;;;22.17;8.23;;;;;;;;;;5075276;28;20277;-77
2022/03/09 03:39:01;;;;;;;24.80;8.60;;;;;;;;;;5083260;28;20187;-77
2022/03/09 03:41:28;;;;;;;24.97;9.07;;;;;;;;;;5083516;28;20292;-77
2022/03/09 03:43:56;;;;;;;27.67;9.50;;;;;;;;;;5082648;28;20202;-77
2022/03/09 03:46:23;;;;;;;21.67;8.37;;;;;;;;;;5081051;28;20681;-77
2022/03/09 03:48:51;;;;;;;21.37;8.17;;;;;;;;;;5087512;28;20768;-76
2022/03/09 03:51:19;;;;;;;21.13;7.83;;;;;;;;;;5080041;28;20294;-76
2022/03/09 03:53:46;;;;;;;19.33;7.17;;;;;;;;;;5080018;28;20288;-78
2022/03/09 03:56:13;;;;;;;22.77;7.93;;;;;;;;;;5080948;28;20238;-77
2022/03/09 03:58:40;;;;;;;22.27;8.00;;;;;;;;;;5082833;28;20735;-77
2022/03/09 04:01:07;;;;;;;21.80;7.17;;;;;;;;;;5078147;28;20276;-77
2022/03/09 04:03:35;;;;;;;22.13;7.10;;;;;;;;;;5080498;28;20233;-77
2022/03/09 04:06:03;;;;;;;28.10;7.23;;;;;;;;;;5080227;28;20293;-76
2022/03/09 04:08:30;;;;;;;23.10;7.80;;;;;;;;;;5083100;28;20301;-76
2022/03/09 04:10:57;;;;;;;25.10;8.17;;;;;;;;;;5081464;28;20287;-77
2022/03/09 04:13:25;;;;;;;23.67;7.30;;;;;;;;;;5081546;28;20298;-77
2022/03/09 04:15:52;;;;;;;21.87;7.53;;;;;;;;;;5079400;28;20286;-76
2022/03/09 04:18:19;;;;;;;24.20;7.70;;;;;;;;;;5087887;28;20277;-77
2022/03/09 04:20:46;;;;;;;25.20;6.83;;;;;;;;;;5079670;28;20638;-77
2022/03/09 04:23:15;;;;;;;15.73;6.60;;;;;;;;;;5079521;28;20243;-77
2022/03/09 04:25:42;;;;;;;23.07;7.87;;;;;;;;;;5079648;28;20235;-77
2022/03/09 04:28:09;;;;;;;18.47;7.60;;;;;;;;;;5082012;28;20256;-77
2022/03/09 04:30:36;;;;;;;25.60;8.43;;;;;;;;;;5080116;28;20295;-77
2022/03/09 04:33:04;;;;;;;31.33;7.73;;;;;;;;;;5078914;28;20226;-76
2022/03/09 04:35:31;;;;;;;19.03;7.20;;;;;;;;;;5079478;28;20208;-77
2022/03/09 04:37:58;;;;;;;23.37;7.93;;;;;;;;;;5080503;28;20282;-76
2022/03/09 04:40:27;;;;;;;23.83;7.93;;;;;;;;;;5078884;28;20308;-77
2022/03/09 04:42:54;;;;;;;20.47;7.60;;;;;;;;;;5079410;28;20199;-77
2022/03/09 04:45:22;;;;;;;22.43;7.90;;;;;;;;;;5087050;28;20721;-77
2022/03/09 04:47:49;;;;;;;23.57;7.87;;;;;;;;;;5087946;28;20731;-77
2022/03/09 04:50:16;;;;;;;19.77;7.60;;;;;;;;;;5071169;28;20191;-76
2022/03/09 04:52:44;;;;;;;18.27;7.87;;;;;;;;;;5077085;28;20234;-77
2022/03/09 04:55:11;;;;;;;25.37;7.07;;;;;;;;;;5074907;28;20240;-76
2022/03/09 04:57:39;;;;;;;19.47;7.30;;;;;;;;;;5087049;28;20201;-76
2022/03/09 05:00:07;;;;;;;18.70;6.33;;;;;;;;;;5079026;28;20257;-76
2022/03/09 05:02:34;;;;;;;17.70;6.73;;;;;;;;;;5079914;28;20248;-76
2022/03/09 05:05:01;;;;;;;17.70;6.57;;;;;;;;;;5070802;28;20234;-76
2022/03/09 05:07:29;;;;;;;19.50;6.70;;;;;;;;;;5074504;28;20282;-76
2022/03/09 05:09:56;;;;;;;17.63;7.03;;;;;;;;;;5071205;28;20264;-76
2022/03/09 05:12:23;;;;;;;18.23;7.43;;;;;;;;;;5084173;28;20226;-76
2022/03/09 05:14:52;;;;;;;18.13;6.80;;;;;;;;;;5082890;28;20235;-76
2022/03/09 05:17:20;;;;;;;15.67;7.03;;;;;;;;;;5070686;28;20773;-76
2022/03/09 05:19:47;;;;;;;21.00;6.97;;;;;;;;;;5086641;28;20202;-76
2022/03/09 05:22:14;;;;;;;18.07;6.77;;;;;;;;;;5071700;28;20300;-77
2022/03/09 05:24:41;;;;;;;15.93;6.90;;;;;;;;;;5079585;28;20204;-76
2022/03/09 05:27:08;;;;;;;15.17;6.10;;;;;;;;;;5083766;28;20306;-76
2022/03/09 05:29:36;;;;;;;15.70;6.53;;;;;;;;;;5085956;28;20250;-77
2022/03/09 05:32:05;;;;;;;18.13;6.13;;;;;;;;;;5089255;28;20198;-76
2022/03/09 05:34:32;;;;;;;16.13;6.00;;;;;;;;;;5077821;28;20230;-76
2022/03/09 05:36:59;;;;;;;11.90;5.63;;;;;;;;;;5086323;28;20229;-76
2022/03/09 05:39:26;;;;;;;13.37;5.10;;;;;;;;;;5091248;28;20300;-76
2022/03/09 05:41:53;;;;;;;15.80;5.43;;;;;;;;;;5097147;28;20288;-76
2022/03/09 05:44:20;;;;;;;17.43;5.60;;;;;;;;;;5092548;28;20228;-76
2022/03/09 05:46:48;;;;;;;14.07;5.07;;;;;;;;;;5074320;28;20234;-76
2022/03/09 05:49:17;;;;;;;19.37;6.30;;;;;;;;;;5073532;28;20244;-76
2022/03/09 05:51:44;;;;;;;13.80;6.40;;;;;;;;;;5074313;28;20211;-76
2022/03/09 05:54:11;;;;;;;16.30;6.30;;;;;;;;;;5074383;28;20313;-76
2022/03/09 05:56:38;;;;;;;10.83;6.60;;;;;;;;;;5074196;28;20281;-77
2022/03/09 05:59:06;;;;;;;15.60;6.37;;;;;;;;;;5083106;28;20212;-76
2022/03/09 06:01:33;;;;;;;16.30;6.07;;;;;;;;;;5094237;28;20294;-76
2022/03/09 06:04:01;;;;;;;10.80;5.70;;;;;;;;;;5093022;28;20253;-79
2022/03/09 06:06:29;;;;;;;12.47;5.13;;;;;;;;;;5079048;28;20210;-79
2022/03/09 06:08:56;;;;;;;14.90;5.20;;;;;;;;;;5076488;28;20255;-76
2022/03/09 06:11:23;;;;;;;10.33;5.17;;;;;;;;;;5094265;28;20237;-75
2022/03/09 06:13:51;;;;;;;11.63;4.90;;;;;;;;;;5083350;28;20234;-76
2022/03/09 06:16:18;;;;;;;11.27;4.37;;;;;;;;;;5073583;28;20750;-75
2022/03/09 06:18:46;;;;;;;15.20;4.57;;;;;;;;;;5073709;28;20249;-76
2022/03/09 06:21:13;;;;;;;11.03;4.10;;;;;;;;;;5085862;28;20198;-75
2022/03/09 06:23:41;;;;;;;9.83;3.87;;;;;;;;;;5087880;28;20193;-77
2022/03/09 06:26:09;;;;;;;14.60;3.97;;;;;;;;;;5072411;28;20744;-81
2022/03/09 06:28:36;;;;;;;9.63;4.13;;;;;;;;;;5081475;28;20301;-78
2022/03/09 06:31:03;;;;;;;9.80;3.50;;;;;;;;;;5090927;28;20317;-76
2022/03/09 06:33:31;;;;;;;5.97;3.23;;;;;;;;;;5080262;28;20195;-76
2022/03/09 06:35:58;;;;;;;10.23;4.30;;;;;;;;;;5082193;28;20205;-76
2022/03/09 06:38:25;;;;;;;9.17;4.00;;;;;;;;;;5088928;28;20282;-78
2022/03/09 06:40:53;;;;;;;7.90;3.70;;;;;;;;;;5091091;28;20290;-76
2022/03/09 06:43:21;;;;;;;14.50;5.20;;;;;;;;;;5076711;28;20229;-77
2022/03/09 06:45:48;;;;;;;12.00;5.03;;;;;;;;;;5075758;28;20225;-78
2022/03/09 06:48:15;;;;;;;13.10;5.70;;;;;;;;;;5091330;28;20319;-78
2022/03/09 06:50:43;;;;;;;14.50;5.60;;;;;;;;;;5086795;28;20203;-77
2022/03/09 06:53:10;;;;;;;13.03;5.50;;;;;;;;;;5074935;28;20281;-78
2022/03/09 06:55:37;;;;;;;23.87;6.33;;;;;;;;;;5084185;28;20583;-77
2022/03/09 06:58:06;;;;;;;12.37;5.47;;;;;;;;;;5087305;28;20286;-77
2022/03/09 07:00:33;;;;;;;12.13;6.67;;;;;;;;;;5084115;28;20226;-76
2022/03/09 07:03:02;;;;;;;13.13;5.77;;;;;;;;;;5075644;28;20230;-77
2022/03/09 07:05:29;;;;;;;13.73;5.93;;;;;;;;;;5091858;28;20209;-77
2022/03/09 07:07:56;;;;;;;10.77;5.03;;;;;;;;;;5092187;28;20237;-77
2022/03/09 07:10:23;;;;;;;13.37;5.43;;;;;;;;;;5091556;28;20233;-76
2022/03/09 07:12:51;;;;;;;10.17;4.97;;;;;;;;;;5087585;28;20726;-77
2022/03/09 07:15:19;;;;;;;16.67;5.47;;;;;;;;;;5083458;28;20213;-77
2022/03/09 07:17:48;;;;;;;14.53;5.13;;;;;;;;;;5072353;28;20725;-77
2022/03/09 07:20:15;;;;;;;13.10;5.17;;;;;;;;;;5077420;28;20285;-76
2022/03/09 07:22:43;;;;;;;12.83;5.30;;;;;;;;;;5058980;28;20234;-77
2022/03/09 07:25:10;;;;;;;13.67;5.23;;;;;;;;;;5078482;28;20275;-77
2022/03/09 07:27:38;;;;;;;13.83;5.53;;;;;;;;;;5082969;28;20299;-76
2022/03/09 07:30:06;;;;;;;16.50;5.40;;;;;;;;;;5084921;28;20313;-77
2022/03/09 07:32:34;;;;;;;12.83;5.03;;;;;;;;;;5091719;28;20198;-76
2022/03/09 07:35:02;;;;;;;12.00;5.30;;;;;;;;;;5072060;28;20690;-77
2022/03/09 07:37:29;;;;;;;13.43;5.40;;;;;;;;;;5077309;28;20196;-76
2022/03/09 07:39:56;;;;;;;11.73;4.80;;;;;;;;;;5090792;28;20329;-76
2022/03/09 07:42:24;;;;;;;9.23;4.50;;;;;;;;;;5084877;28;20289;-76
2022/03/09 07:44:51;;;;;;;13.17;4.37;;;;;;;;;;5081252;28;20289;-77
2022/03/09 07:47:20;;;;;;;10.27;4.27;;;;;;;;;;5082931;28;20222;-76
2022/03/09 07:49:48;;;;;;;11.10;4.53;;;;;;;;;;5082910;28;20221;-77
2022/03/09 07:52:15;;;;;;;18.70;4.90;;;;;;;;;;5079848;28;20202;-77
2022/03/09 07:54:43;;;;;;;11.43;4.70;;;;;;;;;;5072953;28;20226;-77
2022/03/09 07:57:10;;;;;;;8.83;3.97;;;;;;;;;;5088392;28;20202;-77
2022/03/09 07:59:37;;;;;;;7.67;3.53;;;;;;;;;;5077694;28;20302;-77
2022/03/09 08:02:04;;;;;;;10.23;3.87;;;;;;;;;;5072505;28;20222;-77
2022/03/09 08:04:32;;;;;;;10.57;4.23;;;;;;;;;;5086368;28;20194;-77
2022/03/09 08:07:01;;;;;;;13.13;3.70;;;;;;;;;;5079628;28;20205;-76
2022/03/09 08:09:28;;;;;;;9.70;3.83;;;;;;;;;;5088093;28;20723;-77
2022/03/09 08:11:55;;;;;;;13.70;4.30;;;;;;;;;;5073688;28;20273;-77
2022/03/09 08:14:22;;;;;;;11.80;3.80;;;;;;;;;;5091598;28;20248;-77
2022/03/09 08:16:50;;;;;;;11.60;4.13;;;;;;;;;;5091965;28;20285;-76
2022/03/09 08:19:17;;;;;;;9.83;4.10;;;;;;;;;;5086484;28;20663;-77
2022/03/09 08:21:45;;;;;;;9.77;3.77;;;;;;;;;;5084866;28;20252;-77
2022/03/09 08:24:13;;;;;;;9.30;3.83;;;;;;;;;;5086758;28;20277;-77
2022/03/09 08:26:40;;;;;;;10.13;4.10;;;;;;;;;;5079754;28;20226;-77
2022/03/09 08:29:07;;;;;;;12.73;3.87;;;;;;;;;;5079635;28;20250;-77
2022/03/09 08:31:35;;;;;;;9.33;3.90;;;;;;;;;;5076105;28;20234;-77
2022/03/09 08:34:02;;;;;;;8.23;3.63;;;;;;;;;;5071647;28;20238;-77
2022/03/09 08:36:29;;;;;;;7.10;3.60;;;;;;;;;;5072242;28;20206;-76
2022/03/09 08:38:56;;;;;;;7.37;3.70;;;;;;;;;;5085845;28;20195;-77
2022/03/09 08:41:25;;;;;;;8.33;3.30;;;;;;;;;;5079452;28;20201;-76
2022/03/09 08:43:53;;;;;;;8.53;3.53;;;;;;;;;;5082817;28;20206;-77
2022/03/09 08:46:20;;;;;;;9.40;3.70;;;;;;;;;;5075322;28;20675;-77
2022/03/09 08:48:47;;;;;;;6.40;3.27;;;;;;;;;;5086258;28;20266;-77
2022/03/09 08:51:17;;;;;;;12.17;3.50;;;;;;;;;;5084195;28;20281;-77
2022/03/09 08:53:45;;;;;;;10.33;3.63;;;;;;;;;;5087931;28;20582;-77
2022/03/09 08:56:12;;;;;;;7.63;3.47;;;;;;;;;;5080646;28;20223;-77
2022/03/09 08:58:40;;;;;;;10.17;3.30;;;;;;;;;;5070735;28;20219;-77
2022/03/09 09:01:08;;;;;;;5.83;2.80;;;;;;;;;;5078851;28;20640;-77
2022/03/09 09:03:35;;;;;;;6.43;2.90;;;;;;;;;;5086399;28;20222;-77
2022/03/09 09:06:02;;;;;;;7.33;2.57;;;;;;;;;;5090447;28;20230;-78
2022/03/09 09:08:29;;;;;;;6.33;2.50;;;;;;;;;;5079376;28;20309;-77
2022/03/09 09:10:56;;;;;;;8.93;2.57;;;;;;;;;;5073882;28;20306;-77
2022/03/09 09:13:24;;;;;;;6.27;2.77;;;;;;;;;;5080570;28;20194;-77
2022/03/09 09:15:52;;;;;;;5.47;2.13;;;;;;;;;;5086175;28;20287;-77
2022/03/09 09:18:19;;;;;;;10.73;3.60;;;;;;;;;;5087250;28;20233;-77
2022/03/09 09:20:47;;;;;;;7.47;2.70;;;;;;;;;;5090630;28;20241;-77
2022/03/09 09:23:14;;;;;;;6.93;2.90;;;;;;;;;;5073982;28;20264;-76
2022/03/09 09:25:41;;;;;;;8.67;2.93;;;;;;;;;;5074431;28;20198;-78
2022/03/09 09:28:08;;;;;;;6.97;3.20;;;;;;;;;;5073893;28;20257;-77
2022/03/09 09:30:36;;;;;;;9.43;3.30;;;;;;;;;;5079812;28;20258;-77
2022/03/09 09:33:04;;;;;;;9.20;3.57;;;;;;;;;;5093975;28;20283;-77
2022/03/09 09:35:32;;;;;;;8.87;3.63;;;;;;;;;;5090213;28;20270;-76
2022/03/09 09:38:06;;;;;;;6.20;3.33;;;;;;;;;;5084262;28;20290;-77
2022/03/09 09:40:34;;;;;;;8.27;2.83;;;;;;;;;;5093197;28;20205;-76
2022/03/09 09:43:07;;;;;;;6.63;2.80;;;;;;;;;;5087595;28;20203;-76
2022/03/09 09:45:35;;;;;;;7.90;3.37;;;;;;;;;;5085890;28;20205;-76
2022/03/09 09:48:02;;;;;;;7.33;3.37;;;;;;;;;;5085256;28;20245;-76
2022/03/09 09:50:31;;;;;;;8.37;3.57;;;;;;;;;;5083904;28;20305;-76
2022/03/09 09:52:58;;;;;;;6.40;3.80;;;;;;;;;;5081999;28;20297;-77
2022/03/09 09:55:27;;;;;;;6.50;3.83;;;;;;;;;;5084898;28;20230;-77
2022/03/09 09:57:54;;;;;;;8.87;3.87;;;;;;;;;;5081182;28;20199;-76
2022/03/09 10:00:21;;;;;;;7.23;3.50;;;;;;;;;;5077916;28;20229;-77
2022/03/09 10:02:49;;;;;;;5.53;2.53;;;;;;;;;;5077355;28;20230;-76
2022/03/09 10:05:17;;;;;;;5.80;3.07;;;;;;;;;;5093720;28;20237;-76
2022/03/09 10:08:03;;;;;;;7.30;3.10;;;;;;;;;;5082719;28;20234;-76
2022/03/09 10:10:31;;;;;;;7.57;3.30;;;;;;;;;;5079053;28;20219;-76
2022/03/09 10:13:10;;;;;;;9.23;3.50;;;;;;;;;;5089681;28;20222;-76
2022/03/09 10:15:37;;;;;;;7.30;3.90;;;;;;;;;;5082613;28;20281;-75
2022/03/09 10:18:12;;;;;;;7.63;3.10;;;;;;;;;;5090268;28;20238;-75
2022/03/09 10:20:40;;;;;;;6.90;3.07;;;;;;;;;;5080273;28;20278;-75
2022/03/09 10:23:08;;;;;;;8.10;4.80;;;;;;;;;;5083071;28;20195;-76
2022/03/09 10:25:38;;;;;;;7.50;3.70;;;;;;;;;;5076127;28;20301;-76
2022/03/09 10:28:07;;;;;;;8.47;3.67;;;;;;;;;;5076146;28;20251;-76
2022/03/09 10:30:35;;;;;;;9.33;3.90;;;;;;;;;;5089454;28;20222;-76
2022/03/09 10:33:03;;;;;;;9.03;4.80;;;;;;;;;;5075888;28;20199;-76
2022/03/09 10:35:41;;;;;;;8.50;4.00;;;;;;;;;;5093082;28;20247;-76
2022/03/09 10:38:09;;;;;;;9.37;4.10;;;;;;;;;;5083041;28;20229;-76
2022/03/09 10:40:42;;;;;;;9.80;4.10;;;;;;;;;;5084692;28;20285;-76
2022/03/09 10:43:11;;;;;;;9.93;3.87;;;;;;;;;;5074373;28;20293;-76
2022/03/09 10:45:39;;;;;;;7.23;3.47;;;;;;;;;;5086159;28;20198;-76
2022/03/09 10:48:07;;;;;;;7.43;3.90;;;;;;;;;;5072413;28;20234;-76
2022/03/09 10:50:34;;;;;;;8.37;4.00;;;;;;;;;;5078253;28;20305;-76
2022/03/09 10:53:02;;;;;;;11.23;4.37;;;;;;;;;;5083757;28;20276;-76
2022/03/09 10:55:31;;;;;;;8.10;4.67;;;;;;;;;;5073049;28;20227;-76
2022/03/09 10:58:10;;;;;;;15.30;7.37;;;;;;;;;;5078762;28;20198;-76
2022/03/09 11:00:42;;;;;;;9.57;5.73;;;;;;;;;;5076273;28;20187;-77
2022/03/09 11:03:10;;;;;;;13.60;5.63;;;;;;;;;;5082906;28;20226;-76
2022/03/09 11:05:37;;;;;;;10.03;4.40;;;;;;;;;;5084290;28;20222;-77
2022/03/09 11:08:05;;;;;;;8.63;4.57;;;;;;;;;;5084006;28;20241;-77
2022/03/09 11:10:32;;;;;;;11.10;4.17;;;;;;;;;;5080632;28;20258;-77
2022/03/09 11:13:00;;;;;;;9.60;3.40;;;;;;;;;;5078003;28;20287;-76
2022/03/09 11:15:29;;;;;;;7.17;3.90;;;;;;;;;;5083814;28;20294;-76
2022/03/09 11:17:56;;;;;;;6.93;3.30;;;;;;;;;;5080851;28;20248;-76
2022/03/09 11:20:24;;;;;;;7.63;3.43;;;;;;;;;;5082906;28;20620;-77
2022/03/09 11:22:51;;;;;;;7.83;3.40;;;;;;;;;;5061900;28;20256;-76
2022/03/09 11:25:23;;;;;;;6.77;3.53;;;;;;;;;;5088431;28;20191;-76
2022/03/09 11:27:53;;;;;;;10.80;4.03;;;;;;;;;;5081557;28;20677;-77
2022/03/09 11:30:29;;;;;;;11.40;3.77;;;;;;;;;;5087434;28;20673;-77
2022/03/09 11:32:57;;;;;;;6.73;3.40;;;;;;;;;;5080905;28;20237;-76
2022/03/09 11:35:49;;;;;;;5.87;3.20;;;;;;;;;;5074136;28;20231;-76
2022/03/09 11:38:34;;;;;;;5.77;3.43;;;;;;;;;;5072015;28;20198;-76
2022/03/09 11:41:17;;;;;;;7.67;3.37;;;;;;;;;;5078270;28;20230;-76
2022/03/09 11:43:44;;;;;;;7.90;3.73;;;;;;;;;;5085895;28;20241;-76
2022/03/09 11:46:13;;;;;;;9.27;3.20;;;;;;;;;;5078061;28;20841;-77
2022/03/09 11:48:50;;;;;;;9.80;3.40;;;;;;;;;;5073866;28;20274;-77
2022/03/09 11:51:19;;;;;;;9.87;3.43;;;;;;;;;;5077388;28;20214;-76
2022/03/09 11:53:48;;;;;;;8.87;3.60;;;;;;;;;;5075421;28;20230;-76
2022/03/09 11:56:42;;;;;;;7.47;3.30;;;;;;;;;;5058403;28;20233;-77
2022/03/09 11:59:14;;;;;;;8.73;3.53;;;;;;;;;;5086206;28;20295;-77
2022/03/09 12:01:56;;;;;;;7.97;3.30;;;;;;;;;;5090898;28;20269;-77
2022/03/09 12:04:45;;;;;;;6.40;2.87;;;;;;;;;;5076235;28;20688;-78
2022/03/09 12:07:13;;;;;;;8.00;2.70;;;;;;;;;;5075039;28;20252;-77
2022/03/09 12:09:55;;;;;;;7.07;2.37;;;;;;;;;;5081176;28;20273;-78
2022/03/09 12:12:23;;;;;;;9.17;2.80;;;;;;;;;;5079262;28;20297;-77
2022/03/09 12:15:02;;;;;;;4.90;2.70;;;;;;;;;;5085081;28;20282;-78
2022/03/09 12:17:30;;;;;;;8.23;2.60;;;;;;;;;;5079785;28;20233;-78
2022/03/09 12:20:15;;;;;;;8.23;2.40;;;;;;;;;;5087175;28;20226;-77
2022/03/09 12:22:59;;;;;;;6.57;2.00;;;;;;;;;;5082722;28;20277;-78
2022/03/09 12:25:41;;;;;;;6.77;2.27;;;;;;;;;;5071983;28;20218;-78
2022/03/09 12:28:28;;;;;;;7.37;2.60;;;;;;;;;;5078321;28;20613;-77
2022/03/09 12:30:56;;;;;;;5.27;2.10;;;;;;;;;;5085567;28;20676;-78
2022/03/09 12:33:25;;;;;;;5.77;3.07;;;;;;;;;;5081678;28;20248;-78
2022/03/09 12:35:52;;;;;;;5.23;2.30;;;;;;;;;;5087919;28;20202;-77
2022/03/09 12:38:19;;;;;;;9.20;2.40;;;;;;;;;;5090560;28;20230;-77
2022/03/09 12:40:48;;;;;;;5.50;2.17;;;;;;;;;;5092650;28;20190;-78
2022/03/09 12:43:15;;;;;;;5.27;1.87;;;;;;;;;;5088318;28;20290;-77
2022/03/09 12:45:52;;;;;;;5.00;1.50;;;;;;;;;;5088197;28;20297;-77
2022/03/09 12:48:19;;;;;;;6.63;1.87;;;;;;;;;;5085725;28;20234;-78
2022/03/09 12:50:47;;;;;;;5.60;1.80;;;;;;;;;;5085840;28;20266;-77
2022/03/09 12:53:19;;;;;;;4.53;1.87;;;;;;;;;;5084054;28;20553;-77
2022/03/09 12:55:48;;;;;;;5.70;1.87;;;;;;;;;;5081540;28;20666;-77
2022/03/09 12:58:22;;;;;;;8.37;1.90;;;;;;;;;;5089167;28;20256;-77
2022/03/09 13:00:49;;;;;;;4.57;1.40;;;;;;;;;;5083315;28;20604;-78
2022/03/09 13:03:17;;;;;;;4.70;1.60;;;;;;;;;;5078781;28;20274;-78
2022/03/09 13:05:44;;;;;;;4.90;1.90;;;;;;;;;;5083564;28;20667;-77
2022/03/09 13:08:11;;;;;;;4.50;2.03;;;;;;;;;;5086160;28;20666;-78
2022/03/09 13:10:43;;;;;;;7.53;1.50;;;;;;;;;;5086284;28;20223;-78
2022/03/09 13:13:11;;;;;;;4.97;1.67;;;;;;;;;;5086597;28;20615;-78
2022/03/09 13:15:40;;;;;;;2.93;1.40;;;;;;;;;;5076066;28;20282;-78
2022/03/09 13:18:08;;;;;;;3.30;1.37;;;;;;;;;;5094556;28;20228;-78
2022/03/09 13:20:37;;;;;;;4.17;1.40;;;;;;;;;;5095060;28;20229;-78
2022/03/09 13:23:04;;;;;;;3.73;1.47;;;;;;;;;;5094285;28;20281;-78
2022/03/09 13:25:31;;;;;;;4.00;1.17;;;;;;;;;;5094961;28;20638;-79
2022/03/09 13:28:02;;;;;;;3.73;1.23;;;;;;;;;;5094726;28;20282;-78
2022/03/09 13:30:31;;;;;;;3.90;1.53;;;;;;;;;;5092988;28;20321;-78
2022/03/09 13:33:10;;;;;;;3.60;1.40;;;;;;;;;;5094684;28;20225;-78
2022/03/09 13:35:47;;;;;;;4.20;1.47;;;;;;;;;;5079183;28;20238;-78
2022/03/09 13:38:20;;;;;;;5.97;1.27;;;;;;;;;;5085189;28;20297;-78
2022/03/09 13:40:47;;;;;;;2.77;1.10;;;;;;;;;;5080847;28;20276;-77
2022/03/09 13:43:14;;;;;;;5.03;1.30;;;;;;;;;;5077830;28;20281;-78
2022/03/09 13:45:43;;;;;;;3.73;1.40;;;;;;;;;;5074212;28;20282;-77
2022/03/09 13:48:20;;;;;;;4.10;1.37;;;;;;;;;;5084449;28;20785;-78
2022/03/09 13:50:59;;;;;;;3.77;1.70;;;;;;;;;;5082469;28;20294;-78
2022/03/09 13:53:31;;;;;;;3.13;1.37;;;;;;;;;;5074149;28;20203;-77
2022/03/09 13:55:59;;;;;;;5.33;1.40;;;;;;;;;;5076571;28;20195;-78
2022/03/09 13:58:27;;;;;;;5.90;1.63;;;;;;;;;;5082558;28;20334;-78
2022/03/09 14:01:04;;;;;;;4.93;1.80;;;;;;;;;;5082385;28;20918;-78
2022/03/09 14:03:39;;;;;;;4.90;1.40;;;;;;;;;;5073419;28;20234;-78
2022/03/09 14:06:13;;;;;;;3.07;1.10;;;;;;;;;;5084994;28;20194;-78
2022/03/09 14:08:40;;;;;;;2.73;1.40;;;;;;;;;;5094041;28;20198;-78
2022/03/09 14:11:08;;;;;;;3.23;1.43;;;;;;;;;;5084498;28;20543;-78
2022/03/09 14:13:38;;;;;;;4.23;1.37;;;;;;;;;;5083565;28;20202;-78
2022/03/09 14:16:07;;;;;;;3.33;1.40;;;;;;;;;;5093845;28;20194;-78
2022/03/09 14:18:34;;;;;;;6.63;2.40;;;;;;;;;;5089879;28;20210;-78
2022/03/09 14:21:01;;;;;;;3.53;2.07;;;;;;;;;;5073496;28;20195;-78
2022/03/09 14:23:29;;;;;;;3.73;2.47;;;;;;;;;;5073143;28;20654;-77
2022/03/09 14:25:56;;;;;;;1.63;1.20;;;;;;;;;;5073481;28;20205;-77
2022/03/09 14:28:24;;;;;;;3.47;1.50;;;;;;;;;;5092421;28;20198;-79
2022/03/09 14:30:51;;;;;;;4.37;1.50;;;;;;;;;;5093269;28;20229;-79
2022/03/09 14:33:19;;;;;;;1.73;1.20;;;;;;;;;;5093429;28;20724;-79
2022/03/09 14:35:48;;;;;;;3.77;1.33;;;;;;;;;;5092875;28;20297;-79
2022/03/09 14:38:16;;;;;;;2.50;1.07;;;;;;;;;;5093513;28;20199;-79
2022/03/09 14:40:43;;;;;;;3.23;1.10;;;;;;;;;;5075750;28;20248;-78
2022/03/09 14:43:10;;;;;;;1.80;0.93;;;;;;;;;;5093168;28;20230;-78
2022/03/09 14:45:37;;;;;;;2.07;0.90;;;;;;;;;;5093211;28;20285;-78
2022/03/09 14:48:05;;;;;;;2.77;1.00;;;;;;;;;;5093360;28;20321;-79